Tampa, Florida
Traffic Map
Current Weather Conditions
Tampa, Florida
Clear
Clear
56°
Feels Like: 56°
Wind Chill: 56° Ceiling: Unl
Heat Index: 56° Visibility: 10mi
Dew Point: 46° Wind: 6mph
Humidity: 69% Direction: 340° (NNW)
Pressure: 30.03in Gusts: 0mph
Raw Report DataKTPA 130353Z 34005KT 10SM CLR 13/08 A3003 RMK AO2 SLP168 T01330078
Traffic Incident Summary
Active as of:
Severity:
Category:
InformationThere was an issue retrieving the traffic information for this location. Please try a different location or try again shortly.
Advertisements